sensor_id;sensor_type;location;lat;lon;timestamp;temperature;humidity
15844;DHT22;50807;52.436;13.346;2023-03-04T00:00:29;7.30;85.70
15844;DHT22;50807;52.436;13.346;2023-03-04T00:01:00;7.30;85.80
15844;DHT22;50807;52.436;13.346;2023-03-04T00:01:33;7.20;85.80
15844;DHT22;50807;52.436;13.346;2023-03-04T00:02:04;7.30;85.90
15844;DHT22;50807;52.436;13.346;2023-03-04T00:02:35;7.20;85.80
15844;DHT22;50807;52.436;13.346;2023-03-04T00:03:06;7.20;85.80
15844;DHT22;50807;52.436;13.346;2023-03-04T00:03:40;7.20;85.90
15844;DHT22;50807;52.436;13.346;2023-03-04T00:04:11;7.20;85.90
15844;DHT22;50807;52.436;13.346;2023-03-04T00:04:42;7.20;85.90
15844;DHT22;50807;52.436;13.346;2023-03-04T00:05:14;7.20;85.90
15844;DHT22;50807;52.436;13.346;2023-03-04T00:05:45;7.20;86.00
15844;DHT22;50807;52.436;13.346;2023-03-04T00:06:16;7.20;86.00
15844;DHT22;50807;52.436;13.346;2023-03-04T00:06:47;7.20;86.00
15844;DHT22;50807;52.436;13.346;2023-03-04T00:07:19;7.20;86.10
15844;DHT22;50807;52.436;13.346;2023-03-04T00:07:50;7.20;86.20
15844;DHT22;50807;52.436;13.346;2023-03-04T00:08:20;7.20;86.20
15844;DHT22;50807;52.436;13.346;2023-03-04T00:08:52;7.20;86.20
15844;DHT22;50807;52.436;13.346;2023-03-04T00:09:23;7.20;86.20
15844;DHT22;50807;52.436;13.346;2023-03-04T00:09:54;7.10;86.20
15844;DHT22;50807;52.436;13.346;2023-03-04T00:10:26;7.20;86.40
15844;DHT22;50807;52.436;13.346;2023-03-04T00:10:56;7.10;86.40
15844;DHT22;50807;52.436;13.346;2023-03-04T00:11:27;7.10;86.40
15844;DHT22;50807;52.436;13.346;2023-03-04T00:11:59;7.10;86.40
15844;DHT22;50807;52.436;13.346;2023-03-04T00:12:29;7.10;86.50
15844;DHT22;50807;52.436;13.346;2023-03-04T00:13:00;7.10;86.50
15844;DHT22;50807;52.436;13.346;2023-03-04T00:13:32;7.10;86.50
15844;DHT22;50807;52.436;13.346;2023-03-04T00:14:03;7.10;86.50
15844;DHT22;50807;52.436;13.346;2023-03-04T00:14:33;7.10;86.50
15844;DHT22;50807;52.436;13.346;2023-03-04T00:15:05;7.10;86.50
15844;DHT22;50807;52.436;13.346;2023-03-04T00:15:37;7.10;86.60
15844;DHT22;50807;52.436;13.346;2023-03-04T00:16:08;7.10;86.70
15844;DHT22;50807;52.436;13.346;2023-03-04T00:16:40;7.00;86.60
15844;DHT22;50807;52.436;13.346;2023-03-04T00:17:12;7.00;86.80
15844;DHT22;50807;52.436;13.346;2023-03-04T00:17:43;7.00;86.80
15844;DHT22;50807;52.436;13.346;2023-03-04T00:18:15;7.00;86.80
15844;DHT22;50807;52.436;13.346;2023-03-04T00:18:47;7.00;86.90
15844;DHT22;50807;52.436;13.346;2023-03-04T00:19:17;7.00;86.90
15844;DHT22;50807;52.436;13.346;2023-03-04T00:19:48;7.00;87.00
15844;DHT22;50807;52.436;13.346;2023-03-04T00:20:20;7.00;87.10
15844;DHT22;50807;52.436;13.346;2023-03-04T00:20:51;7.00;87.20
15844;DHT22;50807;52.436;13.346;2023-03-04T00:21:22;7.00;87.30
15844;DHT22;50807;52.436;13.346;2023-03-04T00:21:54;7.00;87.30
15844;DHT22;50807;52.436;13.346;2023-03-04T00:22:25;7.00;87.60
15844;DHT22;50807;52.436;13.346;2023-03-04T00:22:55;7.00;87.60
15844;DHT22;50807;52.436;13.346;2023-03-04T00:23:27;7.00;87.60
15844;DHT22;50807;52.436;13.346;2023-03-04T00:23:58;7.00;87.60
15844;DHT22;50807;52.436;13.346;2023-03-04T00:24:29;7.00;87.60
15844;DHT22;50807;52.436;13.346;2023-03-04T00:25:00;7.00;87.70
15844;DHT22;50807;52.436;13.346;2023-03-04T00:25:31;7.00;87.80
15844;DHT22;50807;52.436;13.346;2023-03-04T00:26:03;7.00;87.70
15844;DHT22;50807;52.436;13.346;2023-03-04T00:26:35;7.00;87.80
15844;DHT22;50807;52.436;13.346;2023-03-04T00:27:05;7.00;87.80
15844;DHT22;50807;52.436;13.346;2023-03-04T00:27:36;7.10;87.90
15844;DHT22;50807;52.436;13.346;2023-03-04T00:28:08;7.00;88.10
15844;DHT22;50807;52.436;13.346;2023-03-04T00:28:39;7.00;88.10
15844;DHT22;50807;52.436;13.346;2023-03-04T00:29:10;7.10;88.10
15844;DHT22;50807;52.436;13.346;2023-03-04T00:29:42;7.00;88.10
15844;DHT22;50807;52.436;13.346;2023-03-04T00:30:13;7.00;88.20
15844;DHT22;50807;52.436;13.346;2023-03-04T00:30:43;7.10;88.20
15844;DHT22;50807;52.436;13.346;2023-03-04T00:31:14;7.10;88.20
15844;DHT22;50807;52.436;13.346;2023-03-04T00:31:47;7.10;88.20
15844;DHT22;50807;52.436;13.346;2023-03-04T00:32:18;7.10;88.40
15844;DHT22;50807;52.436;13.346;2023-03-04T00:32:49;7.10;88.40
15844;DHT22;50807;52.436;13.346;2023-03-04T00:33:24;7.10;88.50
15844;DHT22;50807;52.436;13.346;2023-03-04T00:33:55;7.10;88.40
15844;DHT22;50807;52.436;13.346;2023-03-04T00:34:26;7.10;88.40
15844;DHT22;50807;52.436;13.346;2023-03-04T00:34:58;7.10;89.10
15844;DHT22;50807;52.436;13.346;2023-03-04T00:35:28;7.10;88.40
15844;DHT22;50807;52.436;13.346;2023-03-04T00:35:59;7.10;88.40
15844;DHT22;50807;52.436;13.346;2023-03-04T00:36:32;7.10;88.50
15844;DHT22;50807;52.436;13.346;2023-03-04T00:37:02;7.10;88.50
15844;DHT22;50807;52.436;13.346;2023-03-04T00:37:33;7.20;88.50
15844;DHT22;50807;52.436;13.346;2023-03-04T00:38:05;7.20;88.60
15844;DHT22;50807;52.436;13.346;2023-03-04T00:38:36;7.20;88.60
15844;DHT22;50807;52.436;13.346;2023-03-04T00:39:07;7.20;88.60
15844;DHT22;50807;52.436;13.346;2023-03-04T00:39:38;7.20;88.60
15844;DHT22;50807;52.436;13.346;2023-03-04T00:40:10;7.20;88.60
15844;DHT22;50807;52.436;13.346;2023-03-04T00:40:41;7.20;88.60
15844;DHT22;50807;52.436;13.346;2023-03-04T00:41:13;7.20;88.60
15844;DHT22;50807;52.436;13.346;2023-03-04T00:41:44;7.20;88.50
15844;DHT22;50807;52.436;13.346;2023-03-04T00:42:15;7.20;88.50
15844;DHT22;50807;52.436;13.346;2023-03-04T00:42:47;7.20;88.50
15844;DHT22;50807;52.436;13.346;2023-03-04T00:43:18;7.30;88.70
15844;DHT22;50807;52.436;13.346;2023-03-04T00:43:49;7.30;88.60
15844;DHT22;50807;52.436;13.346;2023-03-04T00:44:21;7.30;88.70
15844;DHT22;50807;52.436;13.346;2023-03-04T00:44:52;7.30;88.60
15844;DHT22;50807;52.436;13.346;2023-03-04T00:45:22;7.30;88.60
15844;DHT22;50807;52.436;13.346;2023-03-04T00:45:53;7.30;88.60
15844;DHT22;50807;52.436;13.346;2023-03-04T00:46:25;7.30;88.80
15844;DHT22;50807;52.436;13.346;2023-03-04T00:46:57;7.30;88.80
15844;DHT22;50807;52.436;13.346;2023-03-04T00:47:28;7.30;88.70
15844;DHT22;50807;52.436;13.346;2023-03-04T00:48:00;7.40;88.80
15844;DHT22;50807;52.436;13.346;2023-03-04T00:48:31;7.40;88.70
15844;DHT22;50807;52.436;13.346;2023-03-04T00:49:02;7.40;88.80
15844;DHT22;50807;52.436;13.346;2023-03-04T00:49:34;7.40;88.80
15844;DHT22;50807;52.436;13.346;2023-03-04T00:50:05;7.40;88.80
15844;DHT22;50807;52.436;13.346;2023-03-04T00:50:37;7.40;88.80
15844;DHT22;50807;52.436;13.346;2023-03-04T00:51:09;7.40;88.80
15844;DHT22;50807;52.436;13.346;2023-03-04T00:51:39;7.40;88.70
15844;DHT22;50807;52.436;13.346;2023-03-04T00:52:10;7.40;88.70
15844;DHT22;50807;52.436;13.346;2023-03-04T00:52:42;7.40;88.70
15844;DHT22;50807;52.436;13.346;2023-03-04T00:53:12;7.40;88.70
15844;DHT22;50807;52.436;13.346;2023-03-04T00:53:43;7.50;88.70
15844;DHT22;50807;52.436;13.346;2023-03-04T00:54:16;7.50;88.70
15844;DHT22;50807;52.436;13.346;2023-03-04T00:54:47;7.50;88.70
15844;DHT22;50807;52.436;13.346;2023-03-04T00:55:18;7.50;88.70
15844;DHT22;50807;52.436;13.346;2023-03-04T00:55:50;7.50;88.70
15844;DHT22;50807;52.436;13.346;2023-03-04T00:56:20;7.50;88.70
15844;DHT22;50807;52.436;13.346;2023-03-04T00:56:51;7.50;88.70
15844;DHT22;50807;52.436;13.346;2023-03-04T00:57:23;7.50;88.70
15844;DHT22;50807;52.436;13.346;2023-03-04T00:57:54;7.50;88.70
15844;DHT22;50807;52.436;13.346;2023-03-04T00:58:25;7.50;88.70
15844;DHT22;50807;52.436;13.346;2023-03-04T00:58:57;7.60;88.80
15844;DHT22;50807;52.436;13.346;2023-03-04T00:59:27;7.60;88.80
15844;DHT22;50807;52.436;13.346;2023-03-04T00:59:58;7.60;88.70
15844;DHT22;50807;52.436;13.346;2023-03-04T01:00:30;7.60;88.70
15844;DHT22;50807;52.436;13.346;2023-03-04T01:01:01;7.60;88.70
15844;DHT22;50807;52.436;13.346;2023-03-04T01:01:31;7.60;88.60
15844;DHT22;50807;52.436;13.346;2023-03-04T01:02:05;7.60;88.70
15844;DHT22;50807;52.436;13.346;2023-03-04T01:02:35;7.60;88.70
15844;DHT22;50807;52.436;13.346;2023-03-04T01:03:06;7.60;88.70
15844;DHT22;50807;52.436;13.346;2023-03-04T01:03:37;7.70;88.60
15844;DHT22;50807;52.436;13.346;2023-03-04T01:04:10;7.70;88.60
15844;DHT22;50807;52.436;13.346;2023-03-04T01:04:41;7.70;88.50
15844;DHT22;50807;52.436;13.346;2023-03-04T01:05:12;7.70;88.60
15844;DHT22;50807;52.436;13.346;2023-03-04T01:05:44;7.70;88.70
15844;DHT22;50807;52.436;13.346;2023-03-04T01:06:15;7.70;88.60
15844;DHT22;50807;52.436;13.346;2023-03-04T01:06:46;7.70;88.50
15844;DHT22;50807;52.436;13.346;2023-03-04T01:07:18;7.70;88.50
15844;DHT22;50807;52.436;13.346;2023-03-04T01:07:49;7.70;88.50
15844;DHT22;50807;52.436;13.346;2023-03-04T01:08:20;7.70;88.50
15844;DHT22;50807;52.436;13.346;2023-03-04T01:08:52;7.70;88.40
15844;DHT22;50807;52.436;13.346;2023-03-04T01:09:23;7.70;88.40
15844;DHT22;50807;52.436;13.346;2023-03-04T01:09:56;7.80;88.40
15844;DHT22;50807;52.436;13.346;2023-03-04T01:10:27;7.80;88.40
15844;DHT22;50807;52.436;13.346;2023-03-04T01:10:58;7.80;88.40
15844;DHT22;50807;52.436;13.346;2023-03-04T01:11:29;7.80;88.40
15844;DHT22;50807;52.436;13.346;2023-03-04T01:12:01;7.80;88.40
15844;DHT22;50807;52.436;13.346;2023-03-04T01:12:32;7.80;88.40
15844;DHT22;50807;52.436;13.346;2023-03-04T01:13:03;7.80;88.40
15844;DHT22;50807;52.436;13.346;2023-03-04T01:13:35;7.80;88.30
15844;DHT22;50807;52.436;13.346;2023-03-04T01:14:06;7.80;88.30
15844;DHT22;50807;52.436;13.346;2023-03-04T01:14:37;7.80;88.30
15844;DHT22;50807;52.436;13.346;2023-03-04T01:15:09;7.80;88.20
15844;DHT22;50807;52.436;13.346;2023-03-04T01:15:41;7.80;88.20
15844;DHT22;50807;52.436;13.346;2023-03-04T01:16:12;7.80;88.30
15844;DHT22;50807;52.436;13.346;2023-03-04T01:16:44;7.80;88.30
15844;DHT22;50807;52.436;13.346;2023-03-04T01:17:16;7.80;88.20
15844;DHT22;50807;52.436;13.346;2023-03-04T01:17:47;7.80;88.20
15844;DHT22;50807;52.436;13.346;2023-03-04T01:18:19;7.90;88.30
15844;DHT22;50807;52.436;13.346;2023-03-04T01:18:50;7.90;88.20
15844;DHT22;50807;52.436;13.346;2023-03-04T01:19:21;7.90;88.30
15844;DHT22;50807;52.436;13.346;2023-03-04T01:19:52;7.90;88.30
15844;DHT22;50807;52.436;13.346;2023-03-04T01:20:24;7.90;88.20
15844;DHT22;50807;52.436;13.346;2023-03-04T01:20:55;7.90;88.20
15844;DHT22;50807;52.436;13.346;2023-03-04T01:21:26;7.90;88.20
15844;DHT22;50807;52.436;13.346;2023-03-04T01:21:58;7.90;88.20
15844;DHT22;50807;52.436;13.346;2023-03-04T01:22:28;7.90;88.20
15844;DHT22;50807;52.436;13.346;2023-03-04T01:22:59;7.90;88.10
15844;DHT22;50807;52.436;13.346;2023-03-04T01:23:30;7.90;88.10
15844;DHT22;50807;52.436;13.346;2023-03-04T01:24:02;7.90;88.10
15844;DHT22;50807;52.436;13.346;2023-03-04T01:24:33;7.90;88.10
15844;DHT22;50807;52.436;13.346;2023-03-04T01:25:06;7.90;88.10
15844;DHT22;50807;52.436;13.346;2023-03-04T01:25:38;7.90;88.10
15844;DHT22;50807;52.436;13.346;2023-03-04T01:26:09;7.90;88.00
15844;DHT22;50807;52.436;13.346;2023-03-04T01:26:41;7.90;88.00
15844;DHT22;50807;52.436;13.346;2023-03-04T01:27:12;8.00;88.10
15844;DHT22;50807;52.436;13.346;2023-03-04T01:27:43;7.90;88.00
15844;DHT22;50807;52.436;13.346;2023-03-04T01:28:15;8.00;88.10
15844;DHT22;50807;52.436;13.346;2023-03-04T01:28:45;8.00;88.10
15844;DHT22;50807;52.436;13.346;2023-03-04T01:29:16;8.00;88.00
15844;DHT22;50807;52.436;13.346;2023-03-04T01:29:48;8.00;88.10
15844;DHT22;50807;52.436;13.346;2023-03-04T01:30:19;8.00;88.10
15844;DHT22;50807;52.436;13.346;2023-03-04T01:30:50;8.00;88.10
15844;DHT22;50807;52.436;13.346;2023-03-04T01:31:22;8.00;88.10
15844;DHT22;50807;52.436;13.346;2023-03-04T01:31:53;8.00;88.00
15844;DHT22;50807;52.436;13.346;2023-03-04T01:32:25;8.00;88.10
15844;DHT22;50807;52.436;13.346;2023-03-04T01:32:56;8.00;88.10
15844;DHT22;50807;52.436;13.346;2023-03-04T01:33:28;8.00;88.10
15844;DHT22;50807;52.436;13.346;2023-03-04T01:34:00;8.00;88.10
15844;DHT22;50807;52.436;13.346;2023-03-04T01:34:30;8.00;88.00
15844;DHT22;50807;52.436;13.346;2023-03-04T01:35:01;8.00;88.00
15844;DHT22;50807;52.436;13.346;2023-03-04T01:35:33;8.00;88.10
15844;DHT22;50807;52.436;13.346;2023-03-04T01:36:04;8.00;88.00
15844;DHT22;50807;52.436;13.346;2023-03-04T01:36:36;8.00;88.00
15844;DHT22;50807;52.436;13.346;2023-03-04T01:37:07;8.00;88.00
15844;DHT22;50807;52.436;13.346;2023-03-04T01:37:38;8.00;88.00
15844;DHT22;50807;52.436;13.346;2023-03-04T01:38:09;8.00;88.00
15844;DHT22;50807;52.436;13.346;2023-03-04T01:38:42;8.00;88.00
15844;DHT22;50807;52.436;13.346;2023-03-04T01:39:13;8.00;87.90
15844;DHT22;50807;52.436;13.346;2023-03-04T01:39:43;8.00;87.90
15844;DHT22;50807;52.436;13.346;2023-03-04T01:40:14;8.00;87.90
15844;DHT22;50807;52.436;13.346;2023-03-04T01:40:46;8.00;87.90
15844;DHT22;50807;52.436;13.346;2023-03-04T01:41:22;8.10;88.00
15844;DHT22;50807;52.436;13.346;2023-03-04T01:41:55;8.00;87.90
15844;DHT22;50807;52.436;13.346;2023-03-04T01:42:27;8.10;88.00
15844;DHT22;50807;52.436;13.346;2023-03-04T01:43:01;8.10;88.00
15844;DHT22;50807;52.436;13.346;2023-03-04T01:43:34;8.10;87.90
15844;DHT22;50807;52.436;13.346;2023-03-04T01:44:09;8.10;88.00
15844;DHT22;50807;52.436;13.346;2023-03-04T01:44:43;8.10;88.00
15844;DHT22;50807;52.436;13.346;2023-03-04T01:45:16;8.10;87.90
15844;DHT22;50807;52.436;13.346;2023-03-04T01:45:50;8.10;87.80
15844;DHT22;50807;52.436;13.346;2023-03-04T01:46:23;8.10;87.80
15844;DHT22;50807;52.436;13.346;2023-03-04T01:46:55;8.10;87.80
15844;DHT22;50807;52.436;13.346;2023-03-04T01:47:28;8.10;87.80
15844;DHT22;50807;52.436;13.346;2023-03-04T01:48:03;8.10;87.90
15844;DHT22;50807;52.436;13.346;2023-03-04T01:48:36;8.10;87.90
15844;DHT22;50807;52.436;13.346;2023-03-04T01:49:09;8.10;87.80
15844;DHT22;50807;52.436;13.346;2023-03-04T01:49:46;8.10;87.90
15844;DHT22;50807;52.436;13.346;2023-03-04T01:50:26;8.10;87.80
15844;DHT22;50807;52.436;13.346;2023-03-04T01:50:59;8.10;87.80
15844;DHT22;50807;52.436;13.346;2023-03-04T01:51:32;8.10;87.80
15844;DHT22;50807;52.436;13.346;2023-03-04T01:52:03;8.10;87.80
15844;DHT22;50807;52.436;13.346;2023-03-04T01:52:41;8.20;87.80
15844;DHT22;50807;52.436;13.346;2023-03-04T01:53:16;8.20;87.80
15844;DHT22;50807;52.436;13.346;2023-03-04T01:53:51;8.20;87.80
15844;DHT22;50807;52.436;13.346;2023-03-04T01:54:24;8.20;87.80
15844;DHT22;50807;52.436;13.346;2023-03-04T01:54:55;8.20;87.80
15844;DHT22;50807;52.436;13.346;2023-03-04T01:55:28;8.20;87.80
15844;DHT22;50807;52.436;13.346;2023-03-04T01:56:18;8.20;87.80
15844;DHT22;50807;52.436;13.346;2023-03-04T01:56:55;8.20;87.80
15844;DHT22;50807;52.436;13.346;2023-03-04T01:57:34;8.20;87.80
15844;DHT22;50807;52.436;13.346;2023-03-04T01:58:05;8.20;87.70
15844;DHT22;50807;52.436;13.346;2023-03-04T01:58:41;8.20;87.80
15844;DHT22;50807;52.436;13.346;2023-03-04T01:59:14;8.20;87.60
15844;DHT22;50807;52.436;13.346;2023-03-04T02:00:13;8.20;87.60
15844;DHT22;50807;52.436;13.346;2023-03-04T02:00:49;8.20;87.80
15844;DHT22;50807;52.436;13.346;2023-03-04T02:01:20;8.30;87.70
15844;DHT22;50807;52.436;13.346;2023-03-04T02:01:52;8.30;88.30
15844;DHT22;50807;52.436;13.346;2023-03-04T02:02:25;8.30;87.60
15844;DHT22;50807;52.436;13.346;2023-03-04T02:02:59;8.30;87.60
15844;DHT22;50807;52.436;13.346;2023-03-04T02:03:33;8.30;87.60
15844;DHT22;50807;52.436;13.346;2023-03-04T02:04:05;8.30;87.60
15844;DHT22;50807;52.436;13.346;2023-03-04T02:04:37;8.30;87.60
15844;DHT22;50807;52.436;13.346;2023-03-04T02:05:10;8.30;87.60
15844;DHT22;50807;52.436;13.346;2023-03-04T02:05:43;8.30;87.60
15844;DHT22;50807;52.436;13.346;2023-03-04T02:06:17;8.30;87.70
15844;DHT22;50807;52.436;13.346;2023-03-04T02:06:48;8.30;87.70
15844;DHT22;50807;52.436;13.346;2023-03-04T02:07:20;8.20;87.60
15844;DHT22;50807;52.436;13.346;2023-03-04T02:07:52;8.30;87.70
15844;DHT22;50807;52.436;13.346;2023-03-04T02:08:26;8.30;87.70
15844;DHT22;50807;52.436;13.346;2023-03-04T02:08:57;8.30;87.70
15844;DHT22;50807;52.436;13.346;2023-03-04T02:09:28;8.30;87.80
15844;DHT22;50807;52.436;13.346;2023-03-04T02:10:01;8.30;87.80
15844;DHT22;50807;52.436;13.346;2023-03-04T02:10:33;8.30;87.90
15844;DHT22;50807;52.436;13.346;2023-03-04T02:11:04;8.30;87.80
15844;DHT22;50807;52.436;13.346;2023-03-04T02:11:37;8.30;87.80
15844;DHT22;50807;52.436;13.346;2023-03-04T02:12:08;8.30;87.90
15844;DHT22;50807;52.436;13.346;2023-03-04T02:12:39;8.30;87.90
15844;DHT22;50807;52.436;13.346;2023-03-04T02:13:11;8.30;87.90
15844;DHT22;50807;52.436;13.346;2023-03-04T02:13:44;8.30;88.00
15844;DHT22;50807;52.436;13.346;2023-03-04T02:14:15;8.30;88.00
15844;DHT22;50807;52.436;13.346;2023-03-04T02:14:48;8.30;88.00
15844;DHT22;50807;52.436;13.346;2023-03-04T02:15:20;8.30;88.00
15844;DHT22;50807;52.436;13.346;2023-03-04T02:15:51;8.30;88.00
15844;DHT22;50807;52.436;13.346;2023-03-04T02:16:22;8.30;88.00
15844;DHT22;50807;52.436;13.346;2023-03-04T02:16:53;8.30;88.00
15844;DHT22;50807;52.436;13.346;2023-03-04T02:17:25;8.30;88.00
15844;DHT22;50807;52.436;13.346;2023-03-04T02:17:57;8.30;88.00
15844;DHT22;50807;52.436;13.346;2023-03-04T02:18:28;8.30;88.00
15844;DHT22;50807;52.436;13.346;2023-03-04T02:19:00;8.30;88.00
15844;DHT22;50807;52.436;13.346;2023-03-04T02:19:41;8.30;88.10
15844;DHT22;50807;52.436;13.346;2023-03-04T02:20:27;8.30;88.10
15844;DHT22;50807;52.436;13.346;2023-03-04T02:21:09;8.40;88.10
15844;DHT22;50807;52.436;13.346;2023-03-04T02:21:48;8.40;88.10
15844;DHT22;50807;52.436;13.346;2023-03-04T02:22:18;8.40;88.00
15844;DHT22;50807;52.436;13.346;2023-03-04T02:22:59;8.40;87.90
15844;DHT22;50807;52.436;13.346;2023-03-04T02:23:39;8.40;87.90
15844;DHT22;50807;52.436;13.346;2023-03-04T02:24:21;8.40;87.90
15844;DHT22;50807;52.436;13.346;2023-03-04T02:25:00;8.40;87.90
15844;DHT22;50807;52.436;13.346;2023-03-04T02:25:41;8.40;87.90
15844;DHT22;50807;52.436;13.346;2023-03-04T02:26:20;8.40;87.80
15844;DHT22;50807;52.436;13.346;2023-03-04T02:26:52;8.40;87.80
15844;DHT22;50807;52.436;13.346;2023-03-04T02:27:24;8.50;87.80
15844;DHT22;50807;52.436;13.346;2023-03-04T02:27:54;8.40;87.80
15844;DHT22;50807;52.436;13.346;2023-03-04T02:28:25;8.50;87.80
15844;DHT22;50807;52.436;13.346;2023-03-04T02:28:58;8.50;87.80
15844;DHT22;50807;52.436;13.346;2023-03-04T02:29:29;8.50;87.90
15844;DHT22;50807;52.436;13.346;2023-03-04T02:30:00;8.50;87.90
15844;DHT22;50807;52.436;13.346;2023-03-04T02:30:31;8.50;87.90
15844;DHT22;50807;52.436;13.346;2023-03-04T02:31:04;8.50;87.90
15844;DHT22;50807;52.436;13.346;2023-03-04T02:31:37;8.50;87.90
15844;DHT22;50807;52.436;13.346;2023-03-04T02:32:11;8.50;88.00
15844;DHT22;50807;52.436;13.346;2023-03-04T02:32:44;8.50;88.10
15844;DHT22;50807;52.436;13.346;2023-03-04T02:33:16;8.50;88.10
15844;DHT22;50807;52.436;13.346;2023-03-04T02:33:48;8.50;88.10
15844;DHT22;50807;52.436;13.346;2023-03-04T02:34:23;8.50;88.10
15844;DHT22;50807;52.436;13.346;2023-03-04T02:34:58;8.50;88.10
15844;DHT22;50807;52.436;13.346;2023-03-04T02:35:28;8.50;88.10
15844;DHT22;50807;52.436;13.346;2023-03-04T02:36:00;8.50;88.10
15844;DHT22;50807;52.436;13.346;2023-03-04T02:36:33;8.50;88.10
15844;DHT22;50807;52.436;13.346;2023-03-04T02:37:05;8.50;88.10
15844;DHT22;50807;52.436;13.346;2023-03-04T02:37:36;8.50;88.20
15844;DHT22;50807;52.436;13.346;2023-03-04T02:38:08;8.50;88.10
15844;DHT22;50807;52.436;13.346;2023-03-04T02:38:40;8.50;88.20
15844;DHT22;50807;52.436;13.346;2023-03-04T02:39:20;8.50;88.10
15844;DHT22;50807;52.436;13.346;2023-03-04T02:39:53;8.50;88.10
15844;DHT22;50807;52.436;13.346;2023-03-04T02:40:28;8.60;88.20
15844;DHT22;50807;52.436;13.346;2023-03-04T02:41:03;8.60;88.20
15844;DHT22;50807;52.436;13.346;2023-03-04T02:41:37;8.60;88.20
15844;DHT22;50807;52.436;13.346;2023-03-04T02:42:09;8.60;88.20
15844;DHT22;50807;52.436;13.346;2023-03-04T02:42:42;8.60;88.10
15844;DHT22;50807;52.436;13.346;2023-03-04T02:43:15;8.60;88.80
15844;DHT22;50807;52.436;13.346;2023-03-04T02:43:50;8.60;88.10
15844;DHT22;50807;52.436;13.346;2023-03-04T02:44:24;8.60;88.10
15844;DHT22;50807;52.436;13.346;2023-03-04T02:45:00;8.60;88.10
15844;DHT22;50807;52.436;13.346;2023-03-04T02:45:37;8.60;88.10
15844;DHT22;50807;52.436;13.346;2023-03-04T02:46:11;8.60;88.10
15844;DHT22;50807;52.436;13.346;2023-03-04T02:46:44;8.60;88.10
15844;DHT22;50807;52.436;13.346;2023-03-04T02:47:16;8.60;88.10
15844;DHT22;50807;52.436;13.346;2023-03-04T02:47:48;8.60;88.00
15844;DHT22;50807;52.436;13.346;2023-03-04T02:48:20;8.60;88.00
15844;DHT22;50807;52.436;13.346;2023-03-04T02:48:53;8.70;88.10
15844;DHT22;50807;52.436;13.346;2023-03-04T02:49:26;8.60;88.00
15844;DHT22;50807;52.436;13.346;2023-03-04T02:49:58;8.70;88.10
15844;DHT22;50807;52.436;13.346;2023-03-04T02:50:33;8.70;88.10
15844;DHT22;50807;52.436;13.346;2023-03-04T02:51:06;8.70;88.10
15844;DHT22;50807;52.436;13.346;2023-03-04T02:51:38;8.70;88.10
15844;DHT22;50807;52.436;13.346;2023-03-04T02:52:13;8.70;88.10
15844;DHT22;50807;52.436;13.346;2023-03-04T02:52:48;8.70;88.10
15844;DHT22;50807;52.436;13.346;2023-03-04T02:53:19;8.70;88.00
15844;DHT22;50807;52.436;13.346;2023-03-04T02:53:50;8.70;88.10
15844;DHT22;50807;52.436;13.346;2023-03-04T02:54:23;8.70;88.40
15844;DHT22;50807;52.436;13.346;2023-03-04T02:54:54;8.70;88.10
15844;DHT22;50807;52.436;13.346;2023-03-04T02:55:25;8.70;88.10
15844;DHT22;50807;52.436;13.346;2023-03-04T02:55:56;8.70;88.10
15844;DHT22;50807;52.436;13.346;2023-03-04T02:56:27;8.70;88.10
15844;DHT22;50807;52.436;13.346;2023-03-04T02:57:01;8.70;88.10
15844;DHT22;50807;52.436;13.346;2023-03-04T02:57:33;8.70;88.20
15844;DHT22;50807;52.436;13.346;2023-03-04T02:58:05;8.70;88.20
15844;DHT22;50807;52.436;13.346;2023-03-04T02:58:36;8.70;88.10
15844;DHT22;50807;52.436;13.346;2023-03-04T02:59:07;8.70;88.10
15844;DHT22;50807;52.436;13.346;2023-03-04T02:59:39;8.70;88.10
15844;DHT22;50807;52.436;13.346;2023-03-04T03:00:12;8.70;88.20
15844;DHT22;50807;52.436;13.346;2023-03-04T03:00:43;8.70;88.10
15844;DHT22;50807;52.436;13.346;2023-03-04T03:01:14;8.70;88.10
15844;DHT22;50807;52.436;13.346;2023-03-04T03:01:46;8.70;88.10
15844;DHT22;50807;52.436;13.346;2023-03-04T03:02:17;8.70;88.10
15844;DHT22;50807;52.436;13.346;2023-03-04T03:02:48;8.70;88.10
15844;DHT22;50807;52.436;13.346;2023-03-04T03:03:18;8.70;88.10
15844;DHT22;50807;52.436;13.346;2023-03-04T03:03:50;8.70;88.10
15844;DHT22;50807;52.436;13.346;2023-03-04T03:04:22;8.70;88.10
15844;DHT22;50807;52.436;13.346;2023-03-04T03:04:53;8.70;88.20
15844;DHT22;50807;52.436;13.346;2023-03-04T03:05:27;8.70;88.10
15844;DHT22;50807;52.436;13.346;2023-03-04T03:06:00;8.70;88.20
15844;DHT22;50807;52.436;13.346;2023-03-04T03:06:31;8.70;88.10
15844;DHT22;50807;52.436;13.346;2023-03-04T03:07:02;8.70;88.10
15844;DHT22;50807;52.436;13.346;2023-03-04T03:07:34;8.70;88.10
15844;DHT22;50807;52.436;13.346;2023-03-04T03:08:05;8.70;88.10
15844;DHT22;50807;52.436;13.346;2023-03-04T03:08:37;8.70;88.10
15844;DHT22;50807;52.436;13.346;2023-03-04T03:09:08;8.70;88.10
15844;DHT22;50807;52.436;13.346;2023-03-04T03:09:39;8.70;88.10
15844;DHT22;50807;52.436;13.346;2023-03-04T03:10:11;8.70;88.10
15844;DHT22;50807;52.436;13.346;2023-03-04T03:10:43;8.70;88.20
15844;DHT22;50807;52.436;13.346;2023-03-04T03:11:14;8.70;88.10
15844;DHT22;50807;52.436;13.346;2023-03-04T03:11:46;8.70;88.20
15844;DHT22;50807;52.436;13.346;2023-03-04T03:12:18;8.70;88.20
15844;DHT22;50807;52.436;13.346;2023-03-04T03:12:49;8.80;88.20
15844;DHT22;50807;52.436;13.346;2023-03-04T03:13:21;8.80;88.20
15844;DHT22;50807;52.436;13.346;2023-03-04T03:13:52;8.80;88.20
15844;DHT22;50807;52.436;13.346;2023-03-04T03:14:22;8.80;88.20
15844;DHT22;50807;52.436;13.346;2023-03-04T03:14:54;8.80;88.30
15844;DHT22;50807;52.436;13.346;2023-03-04T03:15:25;8.80;88.20
15844;DHT22;50807;52.436;13.346;2023-03-04T03:15:56;8.80;88.30
15844;DHT22;50807;52.436;13.346;2023-03-04T03:16:27;8.80;89.00
15844;DHT22;50807;52.436;13.346;2023-03-04T03:16:58;8.80;88.40
15844;DHT22;50807;52.436;13.346;2023-03-04T03:17:29;8.80;88.30
15844;DHT22;50807;52.436;13.346;2023-03-04T03:18:00;8.80;88.30
15844;DHT22;50807;52.436;13.346;2023-03-04T03:18:31;8.80;88.40
15844;DHT22;50807;52.436;13.346;2023-03-04T03:19:02;8.80;88.40
15844;DHT22;50807;52.436;13.346;2023-03-04T03:19:33;8.80;88.40
15844;DHT22;50807;52.436;13.346;2023-03-04T03:20:06;8.80;88.40
15844;DHT22;50807;52.436;13.346;2023-03-04T03:20:38;8.80;88.50
15844;DHT22;50807;52.436;13.346;2023-03-04T03:21:09;8.80;88.50
15844;DHT22;50807;52.436;13.346;2023-03-04T03:21:40;8.80;88.40
15844;DHT22;50807;52.436;13.346;2023-03-04T03:22:11;8.80;88.50
15844;DHT22;50807;52.436;13.346;2023-03-04T03:22:42;8.80;88.40
15844;DHT22;50807;52.436;13.346;2023-03-04T03:23:14;8.80;88.50
15844;DHT22;50807;52.436;13.346;2023-03-04T03:23:47;8.80;88.40